sensor_id;sensor_type;location;lat;lon;timestamp;pressure;altitude;pressure_sealevel;temperature;humidity
7930;BME280;4010;42.698;23.124;2023-04-06T00:00:05;118349.16;;;-140.64;100.00
7930;BME280;4010;42.698;23.124;2023-04-06T00:02:34;118349.16;;;-140.64;100.00
7930;BME280;4010;42.698;23.124;2023-04-06T00:05:01;118349.16;;;-140.64;100.00
7930;BME280;4010;42.698;23.124;2023-04-06T00:07:27;118349.16;;;-140.64;100.00
7930;BME280;4010;42.698;23.124;2023-04-06T00:09:56;118349.16;;;-140.64;100.00
7930;BME280;4010;42.698;23.124;2023-04-06T00:12:23;118349.16;;;-140.64;100.00
7930;BME280;4010;42.698;23.124;2023-04-06T00:14:50;118349.16;;;-140.64;100.00
7930;BME280;4010;42.698;23.124;2023-04-06T00:17:17;118349.16;;;-140.64;100.00
7930;BME280;4010;42.698;23.124;2023-04-06T00:19:43;118349.16;;;-140.64;100.00
7930;BME280;4010;42.698;23.124;2023-04-06T00:22:10;118349.16;;;-140.64;100.00
7930;BME280;4010;42.698;23.124;2023-04-06T00:24:37;118349.16;;;-140.64;100.00
7930;BME280;4010;42.698;23.124;2023-04-06T00:27:05;118349.16;;;-140.64;100.00
7930;BME280;4010;42.698;23.124;2023-04-06T00:29:32;118349.16;;;-140.64;100.00
7930;BME280;4010;42.698;23.124;2023-04-06T00:31:58;118349.16;;;-140.64;100.00
7930;BME280;4010;42.698;23.124;2023-04-06T00:34:25;118349.16;;;-140.64;100.00
7930;BME280;4010;42.698;23.124;2023-04-06T00:36:52;118349.16;;;-140.64;100.00
7930;BME280;4010;42.698;23.124;2023-04-06T00:39:19;118349.16;;;-140.64;100.00
7930;BME280;4010;42.698;23.124;2023-04-06T00:41:46;118349.16;;;-140.64;100.00
7930;BME280;4010;42.698;23.124;2023-04-06T00:44:17;118349.16;;;-140.64;100.00
7930;BME280;4010;42.698;23.124;2023-04-06T00:46:44;118349.16;;;-140.64;100.00
7930;BME280;4010;42.698;23.124;2023-04-06T00:49:11;118349.16;;;-140.64;100.00
7930;BME280;4010;42.698;23.124;2023-04-06T00:51:38;118349.16;;;-140.64;100.00
7930;BME280;4010;42.698;23.124;2023-04-06T00:54:04;118349.16;;;-140.64;100.00
7930;BME280;4010;42.698;23.124;2023-04-06T00:56:31;118349.16;;;-140.64;100.00
7930;BME280;4010;42.698;23.124;2023-04-06T00:58:58;118349.16;;;-140.64;100.00
7930;BME280;4010;42.698;23.124;2023-04-06T01:01:29;118349.16;;;-140.64;100.00
7930;BME280;4010;42.698;23.124;2023-04-06T01:03:58;118349.16;;;-140.64;100.00
7930;BME280;4010;42.698;23.124;2023-04-06T01:06:24;118349.16;;;-140.64;100.00
7930;BME280;4010;42.698;23.124;2023-04-06T01:08:51;118349.16;;;-140.64;100.00
7930;BME280;4010;42.698;23.124;2023-04-06T01:11:19;118349.16;;;-140.64;100.00
7930;BME280;4010;42.698;23.124;2023-04-06T01:13:46;118349.16;;;-140.64;100.00
7930;BME280;4010;42.698;23.124;2023-04-06T01:16:13;118349.16;;;-140.64;100.00
7930;BME280;4010;42.698;23.124;2023-04-06T01:18:42;118349.16;;;-140.64;100.00
7930;BME280;4010;42.698;23.124;2023-04-06T01:21:09;118349.16;;;-140.64;100.00
7930;BME280;4010;42.698;23.124;2023-04-06T01:23:42;118349.16;;;-140.64;100.00
7930;BME280;4010;42.698;23.124;2023-04-06T01:26:09;118349.16;;;-140.64;100.00
7930;BME280;4010;42.698;23.124;2023-04-06T01:28:36;118349.16;;;-140.64;100.00
7930;BME280;4010;42.698;23.124;2023-04-06T01:31:04;118349.16;;;-140.64;100.00
7930;BME280;4010;42.698;23.124;2023-04-06T01:33:31;118349.16;;;-140.64;100.00
7930;BME280;4010;42.698;23.124;2023-04-06T01:35:57;118349.16;;;-140.64;100.00
7930;BME280;4010;42.698;23.124;2023-04-06T01:38:24;118349.16;;;-140.64;100.00
7930;BME280;4010;42.698;23.124;2023-04-06T01:40:53;118349.16;;;-140.64;100.00
7930;BME280;4010;42.698;23.124;2023-04-06T01:43:20;118349.16;;;-140.64;100.00
7930;BME280;4010;42.698;23.124;2023-04-06T01:45:47;118349.16;;;-140.64;100.00
7930;BME280;4010;42.698;23.124;2023-04-06T01:48:14;118349.16;;;-140.64;100.00
7930;BME280;4010;42.698;23.124;2023-04-06T01:50:40;118349.16;;;-140.64;100.00
7930;BME280;4010;42.698;23.124;2023-04-06T01:53:07;118349.16;;;-140.64;100.00
7930;BME280;4010;42.698;23.124;2023-04-06T01:55:34;118349.16;;;-140.64;100.00
7930;BME280;4010;42.698;23.124;2023-04-06T01:58:02;118349.16;;;-140.64;100.00
7930;BME280;4010;42.698;23.124;2023-04-06T02:00:29;118349.16;;;-140.64;100.00
7930;BME280;4010;42.698;23.124;2023-04-06T02:02:56;118349.16;;;-140.64;100.00
7930;BME280;4010;42.698;23.124;2023-04-06T02:05:22;118349.16;;;-140.64;100.00
7930;BME280;4010;42.698;23.124;2023-04-06T02:07:49;118349.16;;;-140.64;100.00
7930;BME280;4010;42.698;23.124;2023-04-06T02:10:17;118349.16;;;-140.64;100.00
7930;BME280;4010;42.698;23.124;2023-04-06T02:12:43;118349.16;;;-140.64;100.00
7930;BME280;4010;42.698;23.124;2023-04-06T02:15:12;118349.16;;;-140.64;100.00
7930;BME280;4010;42.698;23.124;2023-04-06T02:17:39;118349.16;;;-140.64;100.00
7930;BME280;4010;42.698;23.124;2023-04-06T02:20:06;118349.16;;;-140.64;100.00
7930;BME280;4010;42.698;23.124;2023-04-06T02:22:35;118349.16;;;-140.64;100.00
7930;BME280;4010;42.698;23.124;2023-04-06T02:25:01;118349.16;;;-140.64;100.00
7930;BME280;4010;42.698;23.124;2023-04-06T02:27:28;118349.16;;;-140.64;100.00
7930;BME280;4010;42.698;23.124;2023-04-06T02:29:55;118349.16;;;-140.64;100.00
7930;BME280;4010;42.698;23.124;2023-04-06T02:32:23;118349.16;;;-140.64;100.00
7930;BME280;4010;42.698;23.124;2023-04-06T02:34:50;118349.16;;;-140.64;100.00
7930;BME280;4010;42.698;23.124;2023-04-06T02:37:17;118349.16;;;-140.64;100.00
7930;BME280;4010;42.698;23.124;2023-04-06T02:39:43;118349.16;;;-140.64;100.00
7930;BME280;4010;42.698;23.124;2023-04-06T02:42:10;118349.16;;;-140.64;100.00
7930;BME280;4010;42.698;23.124;2023-04-06T02:44:37;118349.16;;;-140.64;100.00
7930;BME280;4010;42.698;23.124;2023-04-06T02:47:04;118349.16;;;-140.64;100.00
7930;BME280;4010;42.698;23.124;2023-04-06T02:49:32;118349.16;;;-140.64;100.00
7930;BME280;4010;42.698;23.124;2023-04-06T02:51:59;118349.16;;;-140.64;100.00
7930;BME280;4010;42.698;23.124;2023-04-06T02:54:25;118349.16;;;-140.64;100.00
7930;BME280;4010;42.698;23.124;2023-04-06T02:56:52;118349.16;;;-140.64;100.00
7930;BME280;4010;42.698;23.124;2023-04-06T02:59:19;118349.16;;;-140.64;100.00
7930;BME280;4010;42.698;23.124;2023-04-06T03:01:46;118349.16;;;-140.64;100.00
7930;BME280;4010;42.698;23.124;2023-04-06T03:04:12;118349.16;;;-140.64;100.00
7930;BME280;4010;42.698;23.124;2023-04-06T03:06:40;118349.16;;;-140.64;100.00
7930;BME280;4010;42.698;23.124;2023-04-06T03:09:07;118349.16;;;-140.64;100.00
7930;BME280;4010;42.698;23.124;2023-04-06T03:11:34;118349.16;;;-140.64;100.00
7930;BME280;4010;42.698;23.124;2023-04-06T03:14:01;118349.16;;;-140.64;100.00
7930;BME280;4010;42.698;23.124;2023-04-06T03:16:27;118349.16;;;-140.64;100.00
7930;BME280;4010;42.698;23.124;2023-04-06T03:18:57;118349.16;;;-140.64;100.00
7930;BME280;4010;42.698;23.124;2023-04-06T03:21:24;118349.16;;;-140.64;100.00
7930;BME280;4010;42.698;23.124;2023-04-06T03:23:53;118349.16;;;-140.64;100.00
7930;BME280;4010;42.698;23.124;2023-04-06T03:26:20;118349.16;;;-140.64;100.00
7930;BME280;4010;42.698;23.124;2023-04-06T03:28:47;118349.16;;;-140.64;100.00
7930;BME280;4010;42.698;23.124;2023-04-06T03:31:14;118349.16;;;-140.64;100.00
7930;BME280;4010;42.698;23.124;2023-04-06T03:33:41;118349.16;;;-140.64;100.00
7930;BME280;4010;42.698;23.124;2023-04-06T03:36:07;118349.16;;;-140.64;100.00
7930;BME280;4010;42.698;23.124;2023-04-06T03:38:35;118349.16;;;-140.64;100.00
7930;BME280;4010;42.698;23.124;2023-04-06T03:41:03;118349.16;;;-140.64;100.00
7930;BME280;4010;42.698;23.124;2023-04-06T03:43:29;118349.16;;;-140.64;100.00
7930;BME280;4010;42.698;23.124;2023-04-06T03:45:56;118349.16;;;-140.64;100.00
7930;BME280;4010;42.698;23.124;2023-04-06T03:48:23;118349.16;;;-140.64;100.00
7930;BME280;4010;42.698;23.124;2023-04-06T03:50:50;118349.16;;;-140.64;100.00
7930;BME280;4010;42.698;23.124;2023-04-06T03:53:16;118349.16;;;-140.64;100.00
7930;BME280;4010;42.698;23.124;2023-04-06T03:55:43;118349.16;;;-140.64;100.00
7930;BME280;4010;42.698;23.124;2023-04-06T03:58:11;118349.16;;;-140.64;100.00
7930;BME280;4010;42.698;23.124;2023-04-06T04:00:38;118349.16;;;-140.64;100.00
7930;BME280;4010;42.698;23.124;2023-04-06T04:03:05;118349.16;;;-140.64;100.00
7930;BME280;4010;42.698;23.124;2023-04-06T04:05:31;118349.16;;;-140.64;100.00
7930;BME280;4010;42.698;23.124;2023-04-06T04:07:58;118349.16;;;-140.64;100.00
7930;BME280;4010;42.698;23.124;2023-04-06T04:10:25;118349.16;;;-140.64;100.00
7930;BME280;4010;42.698;23.124;2023-04-06T04:12:52;118349.16;;;-140.64;100.00
7930;BME280;4010;42.698;23.124;2023-04-06T04:15:20;118349.16;;;-140.64;100.00
7930;BME280;4010;42.698;23.124;2023-04-06T04:17:47;118349.16;;;-140.64;100.00
7930;BME280;4010;42.698;23.124;2023-04-06T04:20:14;118349.16;;;-140.64;100.00
7930;BME280;4010;42.698;23.124;2023-04-06T04:22:41;118349.16;;;-140.64;100.00
7930;BME280;4010;42.698;23.124;2023-04-06T04:25:11;118349.16;;;-140.64;100.00
7930;BME280;4010;42.698;23.124;2023-04-06T04:27:37;118349.16;;;-140.64;100.00
7930;BME280;4010;42.698;23.124;2023-04-06T04:30:06;118349.16;;;-140.64;100.00
7930;BME280;4010;42.698;23.124;2023-04-06T04:32:34;118349.16;;;-140.64;100.00
7930;BME280;4010;42.698;23.124;2023-04-06T04:35:01;118349.16;;;-140.64;100.00
7930;BME280;4010;42.698;23.124;2023-04-06T04:37:28;118349.16;;;-140.64;100.00
7930;BME280;4010;42.698;23.124;2023-04-06T04:39:55;118349.16;;;-140.64;100.00
7930;BME280;4010;42.698;23.124;2023-04-06T04:42:22;118349.16;;;-140.64;100.00
7930;BME280;4010;42.698;23.124;2023-04-06T04:44:48;118349.16;;;-140.64;100.00
7930;BME280;4010;42.698;23.124;2023-04-06T04:47:15;118349.16;;;-140.64;100.00
7930;BME280;4010;42.698;23.124;2023-04-06T04:49:43;118349.16;;;-140.64;100.00
7930;BME280;4010;42.698;23.124;2023-04-06T04:52:10;118349.16;;;-140.64;100.00
7930;BME280;4010;42.698;23.124;2023-04-06T04:54:37;118349.16;;;-140.64;100.00
7930;BME280;4010;42.698;23.124;2023-04-06T04:57:05;118349.16;;;-140.64;100.00
7930;BME280;4010;42.698;23.124;2023-04-06T04:59:32;118349.16;;;-140.64;100.00
7930;BME280;4010;42.698;23.124;2023-04-06T05:01:59;118349.16;;;-140.64;100.00
7930;BME280;4010;42.698;23.124;2023-04-06T05:04:25;118349.16;;;-140.64;100.00
7930;BME280;4010;42.698;23.124;2023-04-06T05:07:03;118349.16;;;-140.64;100.00
7930;BME280;4010;42.698;23.124;2023-04-06T05:09:30;118349.16;;;-140.64;100.00
7930;BME280;4010;42.698;23.124;2023-04-06T05:11:57;118349.16;;;-140.64;100.00
7930;BME280;4010;42.698;23.124;2023-04-06T05:14:24;118349.16;;;-140.64;100.00
7930;BME280;4010;42.698;23.124;2023-04-06T05:16:51;118349.16;;;-140.64;100.00
7930;BME280;4010;42.698;23.124;2023-04-06T05:19:18;118349.16;;;-140.64;100.00
7930;BME280;4010;42.698;23.124;2023-04-06T05:21:45;118349.16;;;-140.64;100.00
7930;BME280;4010;42.698;23.124;2023-04-06T05:24:13;118349.16;;;-140.64;99.83
7930;BME280;4010;42.698;23.124;2023-04-06T05:26:39;118349.16;;;-140.64;97.02
7930;BME280;4010;42.698;23.124;2023-04-06T05:29:07;118349.16;;;-140.64;97.26
7930;BME280;4010;42.698;23.124;2023-04-06T05:31:33;118349.16;;;-140.64;96.64
7930;BME280;4010;42.698;23.124;2023-04-06T05:34:00;118349.16;;;-140.64;95.57
7930;BME280;4010;42.698;23.124;2023-04-06T05:36:27;118349.16;;;-140.64;94.45
7930;BME280;4010;42.698;23.124;2023-04-06T05:38:54;118349.16;;;-140.64;96.14
7930;BME280;4010;42.698;23.124;2023-04-06T05:41:23;118349.16;;;-140.64;96.02
7930;BME280;4010;42.698;23.124;2023-04-06T05:43:50;118349.16;;;-140.64;96.88
7930;BME280;4010;42.698;23.124;2023-04-06T05:46:16;118349.16;;;-140.64;94.75
7930;BME280;4010;42.698;23.124;2023-04-06T05:48:43;118349.16;;;-140.64;91.96
7930;BME280;4010;42.698;23.124;2023-04-06T05:51:10;118349.16;;;-140.64;92.13
7930;BME280;4010;42.698;23.124;2023-04-06T05:53:37;118349.16;;;-140.64;92.94
7930;BME280;4010;42.698;23.124;2023-04-06T05:56:04;118349.16;;;-140.64;91.76
7930;BME280;4010;42.698;23.124;2023-04-06T05:58:33;118349.16;;;-140.64;91.67
7930;BME280;4010;42.698;23.124;2023-04-06T06:01:00;118349.16;;;-140.64;90.97
7930;BME280;4010;42.698;23.124;2023-04-06T06:03:28;118349.16;;;-140.64;91.95
7930;BME280;4010;42.698;23.124;2023-04-06T06:05:59;118349.16;;;-140.64;95.12
7930;BME280;4010;42.698;23.124;2023-04-06T06:08:27;118349.16;;;-140.64;94.72
7930;BME280;4010;42.698;23.124;2023-04-06T06:10:53;118349.16;;;-140.64;93.76
7930;BME280;4010;42.698;23.124;2023-04-06T06:13:20;118349.16;;;-140.64;94.91
7930;BME280;4010;42.698;23.124;2023-04-06T06:15:48;118349.16;;;-140.64;94.82
7930;BME280;4010;42.698;23.124;2023-04-06T06:18:15;118349.16;;;-140.64;95.53
7930;BME280;4010;42.698;23.124;2023-04-06T06:20:42;118349.16;;;-140.64;94.02
7930;BME280;4010;42.698;23.124;2023-04-06T06:23:09;118349.16;;;-140.64;94.38
7930;BME280;4010;42.698;23.124;2023-04-06T06:25:35;118349.16;;;-140.64;93.60
7930;BME280;4010;42.698;23.124;2023-04-06T06:28:02;118349.16;;;-140.64;94.39
7930;BME280;4010;42.698;23.124;2023-04-06T06:30:29;118349.16;;;-140.64;94.30
7930;BME280;4010;42.698;23.124;2023-04-06T06:32:57;118349.16;;;-140.64;93.35
7930;BME280;4010;42.698;23.124;2023-04-06T06:35:24;118349.16;;;-140.64;94.35
7930;BME280;4010;42.698;23.124;2023-04-06T06:37:51;118349.16;;;-140.64;92.86
7930;BME280;4010;42.698;23.124;2023-04-06T06:40:17;118349.16;;;-140.64;92.39
7930;BME280;4010;42.698;23.124;2023-04-06T06:42:45;118349.16;;;-140.64;92.10
7930;BME280;4010;42.698;23.124;2023-04-06T06:45:12;118349.16;;;-140.64;90.48
7930;BME280;4010;42.698;23.124;2023-04-06T06:47:38;118349.16;;;-140.64;93.88
7930;BME280;4010;42.698;23.124;2023-04-06T06:50:08;118349.16;;;-140.64;87.97
7930;BME280;4010;42.698;23.124;2023-04-06T06:52:35;118349.16;;;-140.64;86.75
7930;BME280;4010;42.698;23.124;2023-04-06T06:55:02;118349.16;;;-140.64;88.41
7930;BME280;4010;42.698;23.124;2023-04-06T06:57:29;118349.16;;;-140.64;88.69
7930;BME280;4010;42.698;23.124;2023-04-06T06:59:55;118349.16;;;-140.64;90.25
7930;BME280;4010;42.698;23.124;2023-04-06T07:02:22;118349.16;;;-140.64;89.21
7930;BME280;4010;42.698;23.124;2023-04-06T07:04:49;118349.16;;;-140.64;88.56
7930;BME280;4010;42.698;23.124;2023-04-06T07:07:17;118349.16;;;-140.64;85.11
7930;BME280;4010;42.698;23.124;2023-04-06T07:09:44;118349.16;;;-140.64;84.09
7930;BME280;4010;42.698;23.124;2023-04-06T07:12:10;118349.16;;;-140.64;85.51
7930;BME280;4010;42.698;23.124;2023-04-06T07:14:37;118349.16;;;-140.64;87.93
7930;BME280;4010;42.698;23.124;2023-04-06T07:17:04;118349.16;;;-140.64;87.31
7930;BME280;4010;42.698;23.124;2023-04-06T07:19:30;118349.16;;;-140.64;88.83
7930;BME280;4010;42.698;23.124;2023-04-06T07:21:57;118349.16;;;-140.64;84.36
7930;BME280;4010;42.698;23.124;2023-04-06T07:24:26;118349.16;;;-140.64;86.53
7930;BME280;4010;42.698;23.124;2023-04-06T07:26:52;118349.16;;;-140.64;87.89
7930;BME280;4010;42.698;23.124;2023-04-06T07:29:19;118349.16;;;-140.64;87.71
7930;BME280;4010;42.698;23.124;2023-04-06T07:31:46;118349.16;;;-140.64;86.51
7930;BME280;4010;42.698;23.124;2023-04-06T07:34:14;118349.16;;;-140.64;89.08
7930;BME280;4010;42.698;23.124;2023-04-06T07:36:41;118349.16;;;-140.64;90.27
7930;BME280;4010;42.698;23.124;2023-04-06T07:39:07;118349.16;;;-140.64;90.56
7930;BME280;4010;42.698;23.124;2023-04-06T07:41:36;118349.16;;;-140.64;92.25
7930;BME280;4010;42.698;23.124;2023-04-06T07:44:03;118349.16;;;-140.64;93.23
7930;BME280;4010;42.698;23.124;2023-04-06T07:46:30;118349.16;;;-140.64;91.63
7930;BME280;4010;42.698;23.124;2023-04-06T07:48:57;118349.16;;;-140.64;88.62
7930;BME280;4010;42.698;23.124;2023-04-06T07:51:24;118349.16;;;-140.64;89.13
7930;BME280;4010;42.698;23.124;2023-04-06T07:53:51;118349.16;;;-140.64;87.60
7930;BME280;4010;42.698;23.124;2023-04-06T07:56:18;118349.16;;;-140.64;88.33
7930;BME280;4010;42.698;23.124;2023-04-06T07:58:47;118349.16;;;-140.64;89.68
7930;BME280;4010;42.698;23.124;2023-04-06T08:01:14;118349.16;;;-140.64;88.33
7930;BME280;4010;42.698;23.124;2023-04-06T08:03:41;118349.16;;;-140.64;88.11
7930;BME280;4010;42.698;23.124;2023-04-06T08:06:07;118349.16;;;-140.64;85.68
7930;BME280;4010;42.698;23.124;2023-04-06T08:08:34;118349.16;;;-140.64;84.30
7930;BME280;4010;42.698;23.124;2023-04-06T08:11:01;118349.16;;;-140.64;82.65
7930;BME280;4010;42.698;23.124;2023-04-06T08:13:28;118349.16;;;-140.64;82.46
7930;BME280;4010;42.698;23.124;2023-04-06T08:15:57;118349.16;;;-140.64;82.25
7930;BME280;4010;42.698;23.124;2023-04-06T08:18:25;118349.16;;;-140.64;81.80
7930;BME280;4010;42.698;23.124;2023-04-06T08:20:52;118349.16;;;-140.64;83.26
7930;BME280;4010;42.698;23.124;2023-04-06T08:23:18;118349.16;;;-140.64;85.09
7930;BME280;4010;42.698;23.124;2023-04-06T08:25:45;118349.16;;;-140.64;79.77
7930;BME280;4010;42.698;23.124;2023-04-06T08:28:12;118349.16;;;-140.64;81.09
7930;BME280;4010;42.698;23.124;2023-04-06T08:30:39;118349.16;;;-140.64;80.14
7930;BME280;4010;42.698;23.124;2023-04-06T08:33:08;118349.16;;;-140.64;78.52
7930;BME280;4010;42.698;23.124;2023-04-06T08:35:35;118349.16;;;-140.64;77.19
7930;BME280;4010;42.698;23.124;2023-04-06T08:38:02;118349.16;;;-140.64;76.58
7930;BME280;4010;42.698;23.124;2023-04-06T08:40:28;118349.16;;;-140.64;77.07
7930;BME280;4010;42.698;23.124;2023-04-06T08:42:56;118349.16;;;-140.64;75.25
7930;BME280;4010;42.698;23.124;2023-04-06T08:45:27;118349.16;;;-140.64;76.27
7930;BME280;4010;42.698;23.124;2023-04-06T08:47:54;118349.16;;;-140.64;75.15
7930;BME280;4010;42.698;23.124;2023-04-06T08:50:25;118349.16;;;-140.64;78.48
7930;BME280;4010;42.698;23.124;2023-04-06T08:52:54;118349.16;;;-140.64;81.75
7930;BME280;4010;42.698;23.124;2023-04-06T08:55:21;118349.16;;;-140.64;80.64
7930;BME280;4010;42.698;23.124;2023-04-06T08:57:49;118349.16;;;-140.64;79.03
7930;BME280;4010;42.698;23.124;2023-04-06T09:00:19;118349.16;;;-140.64;81.04
7930;BME280;4010;42.698;23.124;2023-04-06T09:02:47;118349.16;;;-140.64;81.90
7930;BME280;4010;42.698;23.124;2023-04-06T09:05:15;118349.16;;;-140.64;79.85
7930;BME280;4010;42.698;23.124;2023-04-06T09:07:44;118349.16;;;-140.64;80.46
7930;BME280;4010;42.698;23.124;2023-04-06T09:10:11;118349.16;;;-140.64;79.12
7930;BME280;4010;42.698;23.124;2023-04-06T09:12:38;118349.16;;;-140.64;78.62
7930;BME280;4010;42.698;23.124;2023-04-06T09:15:06;118349.16;;;-140.64;78.81
7930;BME280;4010;42.698;23.124;2023-04-06T09:17:44;118349.16;;;-140.64;79.33
7930;BME280;4010;42.698;23.124;2023-04-06T09:20:11;118349.16;;;-140.64;78.07
7930;BME280;4010;42.698;23.124;2023-04-06T09:22:39;118349.16;;;-140.64;76.21
7930;BME280;4010;42.698;23.124;2023-04-06T09:25:08;118349.16;;;-140.64;76.61
7930;BME280;4010;42.698;23.124;2023-04-06T09:27:36;118349.16;;;-140.64;74.71
7930;BME280;4010;42.698;23.124;2023-04-06T09:30:05;118349.16;;;-140.64;73.58
7930;BME280;4010;42.698;23.124;2023-04-06T09:32:32;118349.16;;;-140.64;76.82
7930;BME280;4010;42.698;23.124;2023-04-06T09:35:06;118349.16;;;-140.64;73.01
7930;BME280;4010;42.698;23.124;2023-04-06T09:37:33;118349.16;;;-140.64;73.28
7930;BME280;4010;42.698;23.124;2023-04-06T09:40:05;118349.16;;;-140.64;74.15
7930;BME280;4010;42.698;23.124;2023-04-06T09:42:34;118349.16;;;-140.64;73.66
7930;BME280;4010;42.698;23.124;2023-04-06T09:45:01;118349.16;;;-140.64;71.73
7930;BME280;4010;42.698;23.124;2023-04-06T09:47:28;118349.16;;;-140.64;71.87
7930;BME280;4010;42.698;23.124;2023-04-06T09:49:57;118349.16;;;-140.64;72.05
7930;BME280;4010;42.698;23.124;2023-04-06T09:52:26;118349.16;;;-140.64;72.64
7930;BME280;4010;42.698;23.124;2023-04-06T09:54:55;118349.16;;;-140.64;71.91
7930;BME280;4010;42.698;23.124;2023-04-06T09:57:28;118349.16;;;-140.64;71.80
7930;BME280;4010;42.698;23.124;2023-04-06T10:00:03;118349.16;;;-140.64;70.74
7930;BME280;4010;42.698;23.124;2023-04-06T10:02:39;118349.16;;;-140.64;67.89
7930;BME280;4010;42.698;23.124;2023-04-06T10:05:09;118349.16;;;-140.64;70.11
7930;BME280;4010;42.698;23.124;2023-04-06T10:07:40;118349.16;;;-140.64;68.04
7930;BME280;4010;42.698;23.124;2023-04-06T10:10:10;118349.16;;;-140.64;68.92
7930;BME280;4010;42.698;23.124;2023-04-06T10:12:39;118349.16;;;-140.64;68.85
7930;BME280;4010;42.698;23.124;2023-04-06T10:15:09;118349.16;;;-140.64;65.36
7930;BME280;4010;42.698;23.124;2023-04-06T10:17:36;118349.16;;;-140.64;64.40
7930;BME280;4010;42.698;23.124;2023-04-06T10:20:07;118349.16;;;-140.64;66.62
7930;BME280;4010;42.698;23.124;2023-04-06T10:22:40;118349.16;;;-140.64;61.89
7930;BME280;4010;42.698;23.124;2023-04-06T10:25:08;118349.16;;;-140.64;62.59
7930;BME280;4010;42.698;23.124;2023-04-06T10:27:35;118349.16;;;-140.64;66.09
7930;BME280;4010;42.698;23.124;2023-04-06T10:30:03;118349.16;;;-140.64;61.82
7930;BME280;4010;42.698;23.124;2023-04-06T10:32:36;118349.16;;;-140.64;64.69
7930;BME280;4010;42.698;23.124;2023-04-06T10:35:07;118349.16;;;-140.64;62.21
7930;BME280;4010;42.698;23.124;2023-04-06T10:37:49;118349.16;;;-140.64;61.95
7930;BME280;4010;42.698;23.124;2023-04-06T10:40:23;118349.16;;;-140.64;64.97
7930;BME280;4010;42.698;23.124;2023-04-06T10:42:52;118349.16;;;-140.64;66.38
7930;BME280;4010;42.698;23.124;2023-04-06T10:45:20;118349.16;;;-140.64;64.63
7930;BME280;4010;42.698;23.124;2023-04-06T10:47:48;118349.16;;;-140.64;61.21
7930;BME280;4010;42.698;23.124;2023-04-06T10:50:16;118349.16;;;-140.64;65.17
7930;BME280;4010;42.698;23.124;2023-04-06T10:52:44;118349.16;;;-140.64;65.64
7930;BME280;4010;42.698;23.124;2023-04-06T10:55:12;118349.16;;;-140.64;60.79
7930;BME280;4010;42.698;23.124;2023-04-06T10:57:39;118349.16;;;-140.64;59.82
7930;BME280;4010;42.698;23.124;2023-04-06T11:00:08;118349.16;;;-140.64;61.87
7930;BME280;4010;42.698;23.124;2023-04-06T11:02:35;118349.16;;;-140.64;62.13
7930;BME280;4010;42.698;23.124;2023-04-06T11:05:05;118349.16;;;-140.64;59.38
7930;BME280;4010;42.698;23.124;2023-04-06T11:07:32;118349.16;;;-140.64;59.32
7930;BME280;4010;42.698;23.124;2023-04-06T11:09:59;118349.16;;;-140.64;57.57
7930;BME280;4010;42.698;23.124;2023-04-06T11:12:27;118349.16;;;-140.64;60.21
7930;BME280;4010;42.698;23.124;2023-04-06T11:14:56;118349.16;;;-140.64;58.34
7930;BME280;4010;42.698;23.124;2023-04-06T11:17:28;118349.16;;;-140.64;57.90
7930;BME280;4010;42.698;23.124;2023-04-06T11:19:55;118349.16;;;-140.64;60.73
7930;BME280;4010;42.698;23.124;2023-04-06T11:22:23;118349.16;;;-140.64;60.32
7930;BME280;4010;42.698;23.124;2023-04-06T11:24:50;118349.16;;;-140.64;58.50
7930;BME280;4010;42.698;23.124;2023-04-06T11:27:17;118349.16;;;-140.64;57.98
7930;BME280;4010;42.698;23.124;2023-04-06T11:29:44;118349.16;;;-140.64;57.66
7930;BME280;4010;42.698;23.124;2023-04-06T11:32:20;118349.16;;;-140.64;60.50
7930;BME280;4010;42.698;23.124;2023-04-06T11:34:47;118349.16;;;-140.64;58.67
7930;BME280;4010;42.698;23.124;2023-04-06T11:37:14;118349.16;;;-140.64;60.98
7930;BME280;4010;42.698;23.124;2023-04-06T11:39:47;118349.16;;;-140.64;59.02
7930;BME280;4010;42.698;23.124;2023-04-06T11:42:21;118349.16;;;-140.64;57.50
7930;BME280;4010;42.698;23.124;2023-04-06T11:44:50;118349.16;;;-140.64;57.21
7930;BME280;4010;42.698;23.124;2023-04-06T11:47:18;118349.16;;;-140.64;58.29
7930;BME280;4010;42.698;23.124;2023-04-06T11:49:46;118349.16;;;-140.64;58.07
7930;BME280;4010;42.698;23.124;2023-04-06T11:52:15;118349.16;;;-140.64;60.19
7930;BME280;4010;42.698;23.124;2023-04-06T11:54:43;118349.16;;;-140.64;59.97
7930;BME280;4010;42.698;23.124;2023-04-06T11:57:10;118349.16;;;-140.64;58.18
7930;BME280;4010;42.698;23.124;2023-04-06T11:59:37;118349.16;;;-140.64;58.95
7930;BME280;4010;42.698;23.124;2023-04-06T12:02:04;118349.16;;;-140.64;57.73
7930;BME280;4010;42.698;23.124;2023-04-06T12:04:31;118349.16;;;-140.64;59.38
7930;BME280;4010;42.698;23.124;2023-04-06T12:06:59;118349.16;;;-140.64;59.80
7930;BME280;4010;42.698;23.124;2023-04-06T12:09:25;118349.16;;;-140.64;58.73
7930;BME280;4010;42.698;23.124;2023-04-06T12:11:53;118349.16;;;-140.64;59.63
7930;BME280;4010;42.698;23.124;2023-04-06T12:14:21;118349.16;;;-140.64;59.45
7930;BME280;4010;42.698;23.124;2023-04-06T12:16:48;118349.16;;;-140.64;58.95
7930;BME280;4010;42.698;23.124;2023-04-06T12:19:14;118349.16;;;-140.64;57.79
7930;BME280;4010;42.698;23.124;2023-04-06T12:21:41;118349.16;;;-140.64;57.70
7930;BME280;4010;42.698;23.124;2023-04-06T12:24:08;118349.16;;;-140.64;58.87
7930;BME280;4010;42.698;23.124;2023-04-06T12:26:35;118349.16;;;-140.64;59.35
7930;BME280;4010;42.698;23.124;2023-04-06T12:29:03;118349.16;;;-140.64;58.39
7930;BME280;4010;42.698;23.124;2023-04-06T12:31:32;118349.16;;;-140.64;58.61
7930;BME280;4010;42.698;23.124;2023-04-06T12:34:00;118349.16;;;-140.64;59.61
7930;BME280;4010;42.698;23.124;2023-04-06T12:36:28;118349.16;;;-140.64;58.78